Impact, Texas
Current Conditions -  °F | °C
As of 7:58 AM on Wednesday 26 Nov 2014 (Local Time) from KDYS Reporting Station
Clear Clear  
Wind Chill: 41°   Ceiling: Unl
Heat Index: 46°   Visibility: 10mi
Dew Point: 20°   Wind: 9mph
Humidity: 37%   Direction: 290°WNW
Pressure: 30.15"   Gusts: NA
Location:  32.4875°N, 99.8071°W
Report Text: KDYS 261358Z AUTO 29008KT 10SM CLR 08/M06 A3015 RMK AO2 SLP210 T00771064 $
Loading
Personal Weather Stations






























Interactive Weather Map New forecast layout! Learn more

10-Day Weather Forecast

Advertisements
Track Severe Weather on mobile